Time;durP1;ratioP1;P1;durP2;ratioP2;P2;SDS_P1;SDS_P2;PMS_P1;PMS_P2;Temp;Humidity;BMP_temperature;BMP_pressure;BME280_temperature;BME280_humidity;BME280_pressure;Samples;Min_cycle;Max_cycle;Signal;HPM_P1;HPM_P2
2022/09/20 00:04:32;;;;;;;1.00;0.40;;;;;;;18.85;52.00;97148.41;10558937;28;20020;-25
2022/09/20 00:09:32;;;;;;;0.80;0.40;;;;;;;18.87;52.15;97152.66;10554644;27;20027;-25
2022/09/20 00:14:32;;;;;;;1.03;0.47;;;;;;;18.85;51.96;97153.47;10554961;28;20027;-26
2022/09/20 00:19:33;;;;;;;1.15;0.40;;;;;;;18.85;51.24;97154.31;10549513;28;20059;-26
2022/09/20 00:24:35;;;;;;;0.50;0.30;;;;;;;18.85;52.26;97150.94;10553590;28;20122;-26
2022/09/20 00:29:35;;;;;;;1.65;0.50;;;;;;;18.85;53.50;97145.88;10552951;28;20023;-26
2022/09/20 00:39:54;;;;;;;2.17;0.75;;;;;;;18.83;54.15;97148.41;10546175;28;20107;-27
2022/09/20 00:44:59;;;;;;;1.13;0.50;;;;;;;18.87;52.25;97131.50;10551294;28;20547;-26
2022/09/20 00:50:17;;;;;;;0.70;0.30;;;;;;;18.83;52.76;97135.72;10553614;28;20395;-27
2022/09/20 00:55:18;;;;;;;1.13;0.52;;;;;;;18.84;52.69;97131.50;10554728;28;20027;-26
2022/09/20 01:00:19;;;;;;;1.17;0.50;;;;;;;18.84;52.41;97128.97;10552325;28;20020;-27
2022/09/20 01:05:20;;;;;;;1.55;0.55;;;;;;;18.84;52.26;97127.25;10553517;28;20020;-26
2022/09/20 01:10:20;;;;;;;0.98;0.50;;;;;;;18.83;52.36;97127.28;10550986;28;20034;-27
2022/09/20 01:15:24;;;;;;;1.00;0.30;;;;;;;18.83;52.30;97124.72;10551553;28;20427;-26
2022/09/20 01:20:28;;;;;;;0.77;0.30;;;;;;;18.82;52.43;97128.94;10548975;28;20023;-26
2022/09/20 01:25:43;;;;;;;1.13;0.45;;;;;;;18.82;52.38;97136.56;10557454;28;20437;-27
2022/09/20 01:31:07;;;;;;;1.30;0.60;;;;;;;18.82;53.45;97138.25;10542441;28;20027;-27
2022/09/20 01:36:12;;;;;;;2.92;0.70;;;;;;;18.83;54.13;97129.81;10546451;28;20039;-25
2022/09/20 01:41:45;;;;;;;1.23;0.30;;;;;;;18.84;53.30;97137.41;10552128;28;20024;-26
2022/09/20 01:46:52;;;;;;;1.17;0.57;;;;;;;18.86;52.47;97129.81;10529785;28;20501;-26
2022/09/20 01:52:18;;;;;;;0.40;0.30;;;;;;;18.82;52.97;97133.19;10555609;28;20022;-26
2022/09/20 01:58:06;;;;;;;1.25;0.47;;;;;;;18.79;53.42;97139.09;10513551;28;1055572;-26
2022/09/20 02:03:21;;;;;;;2.25;0.40;;;;;;;18.79;53.55;97133.16;10488178;28;20038;-27
2022/09/20 02:09:01;;;;;;;1.98;0.60;;;;;;;18.78;53.24;97131.47;10554813;28;20034;-26
2022/09/20 02:14:23;;;;;;;1.15;0.40;;;;;;;18.80;52.75;97134.84;10547394;28;20042;-27
2022/09/20 02:19:40;;;;;;;0.60;0.40;;;;;;;18.80;52.92;97139.91;10553574;28;20615;-25
2022/09/20 02:24:52;;;;;;;1.48;0.47;;;;;;;18.78;53.30;97137.38;10552380;28;20038;-27
2022/09/20 02:30:16;;;;;;;0.40;0.20;;;;;;;18.80;52.62;97139.91;10554316;28;20129;-27
2022/09/20 02:35:41;;;;;;;1.55;0.40;;;;;;;18.81;54.15;97132.31;10554707;28;20023;-26
2022/09/20 02:40:41;;;;;;;1.02;0.40;;;;;;;18.83;54.19;97128.09;10550665;28;20024;-26
2022/09/20 02:46:03;;;;;;;0.60;0.30;;;;;;;18.84;52.78;97127.25;10553746;28;20023;-27
2022/09/20 02:51:24;;;;;;;1.20;0.20;;;;;;;18.81;53.05;97121.31;10550883;28;20066;-26
2022/09/20 02:56:35;;;;;;;4.93;0.40;;;;;;;18.78;53.41;97113.69;10565537;28;20485;-27
2022/09/20 03:02:07;;;;;;;1.10;0.50;;;;;;;18.76;53.71;97128.06;10550402;28;20016;-26
2022/09/20 03:07:10;;;;;;;3.30;0.57;;;;;;;18.73;53.73;97128.03;10525231;28;20473;-27
2022/09/20 03:12:48;;;;;;;2.10;0.35;;;;;;;18.74;53.26;97119.63;10557169;28;20055;-27
2022/09/20 03:18:03;;;;;;;0.93;0.47;;;;;;;18.73;53.90;97121.28;10540732;28;20036;-26
2022/09/20 03:23:18;;;;;;;0.70;0.40;;;;;;;18.74;53.59;97124.69;10556544;28;20483;-26
2022/09/20 03:28:36;;;;;;;0.75;0.30;;;;;;;18.73;53.83;97123.81;10559674;28;20035;-27
2022/09/20 03:34:10;;;;;;;1.15;0.30;;;;;;;18.77;54.26;97124.69;10558920;28;20032;-26
2022/09/20 03:39:49;;;;;;;2.47;0.63;;;;;;;18.79;54.45;97128.94;10558249;28;20433;-26
2022/09/20 03:45:07;;;;;;;0.38;0.22;;;;;;;18.79;53.76;97123.00;10494581;28;20028;-26
2022/09/20 03:50:26;;;;;;;3.65;0.60;;;;;;;18.71;53.04;97122.09;10525506;28;20066;-27
2022/09/20 03:55:48;;;;;;;2.20;0.20;;;;;;;18.57;53.16;97142.31;10532265;28;20048;-26
2022/09/20 04:01:03;;;;;;;1.45;0.43;;;;;;;18.58;52.38;97143.19;10525488;28;20123;-27
2022/09/20 04:06:26;;;;;;;1.42;0.50;;;;;;;18.57;52.03;97151.63;10528074;28;20031;-26
2022/09/20 04:11:32;;;;;;;1.20;0.70;;;;;;;18.58;51.32;97150.78;10550049;28;20063;-26
2022/09/20 04:16:50;;;;;;;3.67;1.00;;;;;;;18.57;51.14;97146.56;10547454;28;20107;-26
2022/09/20 04:22:01;;;;;;;5.85;0.70;;;;;;;18.55;50.49;97148.22;10529619;28;20020;-27
2022/09/20 04:27:11;;;;;;;1.17;0.60;;;;;;;18.52;50.27;97143.13;10539328;28;20426;-27
2022/09/20 04:32:26;;;;;;;3.30;0.75;;;;;;;18.47;49.83;97142.25;10558097;27;20102;-26
2022/09/20 04:37:37;;;;;;;2.13;0.90;;;;;;;18.54;49.55;97141.44;10548238;28;20043;-27
2022/09/20 04:42:56;;;;;;;2.35;0.90;;;;;;;18.27;48.21;97146.31;10562204;28;20393;-27
2022/09/20 04:48:12;;;;;;;2.42;0.95;;;;;;;18.04;47.71;97148.66;10538815;28;20135;-26
2022/09/20 04:53:49;;;;;;;3.92;1.02;;;;;;;17.94;46.61;97158.69;10526532;28;20020;-25
2022/09/20 04:59:07;;;;;;;2.80;0.88;;;;;;;17.86;47.35;97163.69;10514692;28;20458;-27
2022/09/20 05:04:17;;;;;;;2.42;0.98;;;;;;;18.32;47.17;97164.97;10524943;28;20024;-27
2022/09/20 05:09:28;;;;;;;1.63;0.70;;;;;;;18.43;47.46;97168.44;10529402;28;20031;-26
2022/09/20 05:14:37;;;;;;;4.78;1.08;;;;;;;18.20;48.31;97169.91;10512528;28;20115;-27
2022/09/20 05:19:48;;;;;;;2.83;1.10;;;;;;;18.34;48.15;97168.38;10544405;28;20073;-26
2022/09/20 05:24:57;;;;;;;2.53;0.88;;;;;;;18.33;48.01;97172.56;10546391;28;20050;-26
2022/09/20 05:30:24;;;;;;;2.08;1.08;;;;;;;18.47;48.31;97165.94;10550396;28;20062;-26
2022/09/20 05:35:32;;;;;;;;;;;;;;;18.46;47.74;97179.44;10552834;28;20603;-25
2022/09/20 05:40:52;;;;;;;;;;;;;;;18.50;49.60;97186.22;10550119;28;19916;-26
2022/09/20 05:46:20;;;;;;;8.45;1.40;;;;;;;18.56;49.64;97180.34;10545665;28;20268;-26
2022/09/20 05:51:58;;;;;;;5.35;0.98;;;;;;;18.55;50.56;97178.66;10554970;28;20406;-26
2022/09/20 05:57:19;;;;;;;4.30;1.08;;;;;;;18.53;50.51;97172.72;10551405;28;20036;-26
2022/09/20 06:02:26;;;;;;;4.57;0.80;;;;;;;18.53;50.63;97183.72;10540808;28;20032;-26
2022/09/20 06:07:57;;;;;;;2.78;0.90;;;;;;;18.55;50.89;97194.72;10552312;28;20094;-26
2022/09/20 06:13:19;;;;;;;2.15;0.70;;;;;;;18.56;50.83;97191.34;10549452;28;20120;-27
2022/09/20 06:18:49;;;;;;;3.20;0.80;;;;;;;18.57;51.02;97192.22;10550864;28;20035;-26
2022/09/20 06:23:55;;;;;;;1.70;0.82;;;;;;;18.57;51.03;97187.97;10531973;28;20069;-26
2022/09/20 06:29:01;;;;;;;;;;;;;;;18.55;51.18;97196.41;10561486;28;20032;-26
2022/09/20 06:34:03;;;;;;;2.83;0.85;;;;;;;18.54;51.36;97198.09;10557672;28;19918;-25
2022/09/20 06:45:01;;;;;;;;;;;;;;;18.64;51.71;97199.00;10549786;28;20043;-26
2022/09/20 06:50:01;;;;;;;3.25;0.85;;;;;;;18.62;51.58;97195.59;10559684;28;19923;-26
2022/09/20 06:55:06;;;;;;;2.95;0.80;;;;;;;18.62;51.56;97205.75;10556530;28;20084;-25
2022/09/20 07:00:10;;;;;;;1.50;0.60;;;;;;;18.51;51.63;97189.63;10556705;28;20031;-25
2022/09/20 07:05:15;;;;;;;1.20;0.68;;;;;;;18.60;51.81;97202.38;10562272;28;20032;-27
2022/09/20 07:10:15;;;;;;;1.80;0.60;;;;;;;18.58;51.71;97204.03;10557330;28;20039;-26
2022/09/20 07:15:16;;;;;;;2.45;0.68;;;;;;;18.59;51.88;97201.50;10555865;28;20380;-26
2022/09/20 07:20:18;;;;;;;1.40;0.57;;;;;;;18.58;51.79;97198.97;10559094;28;20515;-27
2022/09/20 07:25:19;;;;;;;0.75;0.52;;;;;;;18.60;51.87;97202.38;10561599;28;20128;-26
2022/09/20 07:30:20;;;;;;;2.90;0.80;;;;;;;18.61;51.71;97209.13;10550686;28;20043;-26
2022/09/20 07:35:21;;;;;;;3.80;0.88;;;;;;;18.58;51.94;97201.50;10556652;28;20425;-26
2022/09/20 07:40:21;;;;;;;1.52;0.60;;;;;;;18.60;51.98;97207.44;10558651;28;20028;-26
2022/09/20 07:45:22;;;;;;;0.87;0.50;;;;;;;18.64;52.29;97216.75;10555879;28;20407;-27
2022/09/20 07:50:23;;;;;;;1.17;0.60;;;;;;;18.65;52.29;97215.91;10555796;28;20297;-26
2022/09/20 07:55:23;;;;;;;2.25;0.82;;;;;;;18.64;51.96;97214.22;10556897;28;20089;-27
2022/09/20 08:00:24;;;;;;;1.80;0.85;;;;;;;18.63;52.11;97223.53;10549251;28;20039;-27
2022/09/20 08:05:25;;;;;;;1.38;0.70;;;;;;;18.61;52.19;97224.34;10557442;28;20031;-26
2022/09/20 08:10:25;;;;;;;1.10;0.50;;;;;;;18.62;52.14;97216.75;10554900;28;20064;-27
2022/09/20 08:15:26;;;;;;;1.35;0.40;;;;;;;18.60;52.25;97220.13;10549671;28;20024;-26
2022/09/20 08:20:26;;;;;;;1.10;0.40;;;;;;;18.61;52.02;97222.66;10556937;28;20396;-26
2022/09/20 08:25:26;;;;;;;2.65;0.80;;;;;;;18.63;52.06;97221.00;10561100;28;20487;-26
2022/09/20 08:30:27;;;;;;;0.77;0.47;;;;;;;18.61;52.31;97226.88;10551478;28;20038;-26
2022/09/20 08:35:28;;;;;;;0.93;0.47;;;;;;;18.62;52.12;97231.13;10557324;28;20031;-26
2022/09/20 08:40:29;;;;;;;1.42;0.63;;;;;;;18.63;52.19;97225.19;10557018;28;20026;-26
2022/09/20 08:45:29;;;;;;;1.00;0.38;;;;;;;18.63;52.47;97227.72;10552865;28;20035;-26
2022/09/20 08:50:33;;;;;;;0.63;0.40;;;;;;;18.65;52.42;97232.00;10553930;28;20032;-27
2022/09/20 08:55:34;;;;;;;0.68;0.50;;;;;;;18.64;52.59;97229.44;10555583;28;20111;-26
2022/09/20 09:00:37;;;;;;;0.85;0.70;;;;;;;18.66;52.35;97233.69;10547459;28;20133;-26
2022/09/20 09:05:44;;;;;;;1.85;0.30;;;;;;;18.65;52.37;97228.59;10554727;28;20123;-27
2022/09/20 09:10:52;;;;;;;1.08;0.35;;;;;;;18.64;52.26;97220.16;10540084;28;20036;-26
2022/09/20 09:15:57;;;;;;;1.30;0.60;;;;;;;18.65;51.90;97221.84;10549246;28;20145;-26
2022/09/20 09:20:58;;;;;;;1.25;0.47;;;;;;;18.60;52.37;97212.50;10550221;28;21335;-26
2022/09/20 09:26:03;;;;;;;0.75;0.43;;;;;;;18.64;52.24;97212.53;10555854;28;20040;-27
2022/09/20 09:31:33;;;;;;;1.55;0.40;;;;;;;18.66;52.14;97207.50;10552308;28;20499;-27
2022/09/20 09:36:43;;;;;;;1.00;0.40;;;;;;;18.68;52.11;97215.94;10538395;28;20036;-25
2022/09/20 09:41:45;;;;;;;0.50;0.40;;;;;;;18.66;52.01;97213.38;10540819;28;20496;-26
2022/09/20 09:46:45;;;;;;;0.47;0.30;;;;;;;18.67;52.33;97206.66;10550685;28;20032;-27
2022/09/20 09:52:13;;;;;;;0.43;0.40;;;;;;;18.67;52.69;97214.25;10557262;28;20453;-26
2022/09/20 09:57:42;;;;;;;1.33;0.45;;;;;;;18.64;52.53;97199.84;10549863;28;20051;-26
2022/09/20 10:03:05;;;;;;;1.08;0.50;;;;;;;18.68;52.26;97201.56;10537076;28;20548;-28
2022/09/20 10:08:18;;;;;;;0.50;0.38;;;;;;;18.69;52.34;97210.03;10560815;28;20511;-27
2022/09/20 10:13:46;;;;;;;1.17;0.57;;;;;;;18.65;52.42;97201.56;10560275;28;20492;-26
2022/09/20 10:19:21;;;;;;;1.85;0.43;;;;;;;18.63;52.54;97188.03;10549558;28;20028;-27
2022/09/20 10:25:14;;;;;;;0.63;0.57;;;;;;;18.64;52.52;97197.31;10559729;27;20080;-26
2022/09/20 10:30:24;;;;;;;0.90;0.43;;;;;;;18.63;52.29;97187.16;10545099;28;20063;-26
2022/09/20 10:35:27;;;;;;;3.22;0.60;;;;;;;18.63;51.92;97184.63;10560090;28;20380;-25
2022/09/20 10:46:55;;;;;;;6.82;1.85;;;;;;;18.67;52.45;97178.75;10549706;28;20044;-26
2022/09/20 10:52:20;;;;;;;7.35;1.83;;;;;;;18.74;53.96;97183.03;10552310;28;20035;-25
2022/09/20 10:57:47;;;;;;;6.55;0.75;;;;;;;18.77;54.18;97183.03;10556940;28;20039;-26
2022/09/20 11:03:17;;;;;;;4.20;0.50;;;;;;;18.78;52.26;97182.19;10543786;28;20024;-26
2022/09/20 11:08:31;;;;;;;2.13;0.45;;;;;;;18.79;52.24;97186.41;10558514;28;20035;-26
2022/09/20 11:13:45;;;;;;;2.22;0.40;;;;;;;18.82;52.04;97189.81;10558085;28;20080;-27
2022/09/20 11:19:06;;;;;;;1.65;0.55;;;;;;;18.83;51.98;97180.53;10540312;28;20484;-26
2022/09/20 11:24:30;;;;;;;1.33;0.50;;;;;;;18.82;52.07;97189.81;10556220;28;20073;-27
2022/09/20 11:29:39;;;;;;;4.80;0.77;;;;;;;18.85;52.18;97189.00;10556495;28;20399;-26
2022/09/20 11:34:54;;;;;;;2.45;0.47;;;;;;;18.85;52.41;97186.47;10544118;28;20069;-26
2022/09/20 11:40:00;;;;;;;2.92;0.35;;;;;;;18.84;52.46;97178.00;10546928;28;20027;-25
2022/09/20 11:45:01;;;;;;;1.25;0.40;;;;;;;18.83;52.23;97176.31;10557876;28;20403;-26
2022/09/20 11:50:37;;;;;;;3.28;2.28;;;;;;;18.83;52.84;97175.47;10553384;28;20038;-27
2022/09/20 11:55:47;;;;;;;4.65;0.70;;;;;;;18.89;53.99;97175.47;10556794;28;20394;-26
2022/09/20 12:00:54;;;;;;;3.38;0.70;;;;;;;18.89;53.24;97175.47;10546367;28;20507;-26
2022/09/20 12:06:01;;;;;;;1.15;0.52;;;;;;;18.87;52.55;97179.69;10555908;28;20059;-27
2022/09/20 12:11:09;;;;;;;1.60;0.57;;;;;;;18.86;52.63;97180.53;10556202;28;20372;-26
2022/09/20 12:16:41;;;;;;;7.57;0.60;;;;;;;18.82;52.34;97168.69;10547744;28;20035;-27
2022/09/20 12:21:59;;;;;;;1.90;0.47;;;;;;;18.79;52.41;97169.53;10542153;28;20388;-26
2022/09/20 12:27:26;;;;;;;1.95;0.50;;;;;;;18.78;52.75;97167.84;10557991;28;20078;-27
2022/09/20 12:32:38;;;;;;;1.20;0.20;;;;;;;18.78;52.50;97170.38;10555349;28;20031;-26
2022/09/20 12:37:38;;;;;;;0.50;0.40;;;;;;;18.78;52.55;97162.75;10554438;28;20027;-25
2022/09/20 12:42:39;;;;;;;1.20;0.70;;;;;;;18.80;52.46;97165.28;10555725;28;20560;-26
2022/09/20 12:47:51;;;;;;;3.08;0.82;;;;;;;18.79;52.99;97158.50;10550513;28;20290;-26
2022/09/20 12:52:57;;;;;;;8.07;0.80;;;;;;;18.85;54.53;97163.63;10543598;28;20032;-27
2022/09/20 12:58:03;;;;;;;6.53;1.45;;;;;;;18.90;55.45;97161.94;10554176;28;20503;-26
2022/09/20 13:03:27;;;;;;;6.72;1.25;;;;;;;18.91;55.40;97163.69;10548831;28;20042;-26
2022/09/20 13:08:28;;;;;;;4.30;0.60;;;;;;;18.88;53.23;97151.81;10553257;28;20094;-26
2022/09/20 13:13:43;;;;;;;2.40;0.40;;;;;;;18.88;53.01;97153.50;10551054;28;20090;-26
2022/09/20 13:18:43;;;;;;;3.42;0.70;;;;;;;18.87;52.86;97152.66;10539277;28;20032;-26
2022/09/20 13:23:48;;;;;;;6.80;1.30;;;;;;;18.81;52.62;97146.69;10552405;28;20515;-26
2022/09/20 13:28:53;;;;;;;1.65;0.80;;;;;;;18.83;52.81;97150.94;10555611;28;20096;-25
2022/09/20 13:33:53;;;;;;;5.97;0.70;;;;;;;18.84;52.87;97152.63;10553690;28;20062;-35
2022/09/20 13:38:56;;;;;;;6.57;0.60;;;;;;;18.85;52.79;97150.94;10557258;28;20428;-27
2022/09/20 13:43:56;;;;;;;3.30;0.90;;;;;;;18.85;53.08;97143.34;10553658;28;20398;-26
2022/09/20 13:49:19;;;;;;;3.45;0.60;;;;;;;18.83;52.98;97147.56;10550974;28;20040;-27
2022/09/20 13:54:29;;;;;;;5.53;0.60;;;;;;;18.84;53.82;97151.78;10553382;28;20165;-27
2022/09/20 13:59:35;;;;;;;13.23;3.17;;;;;;;18.89;54.95;97161.13;10548293;28;20028;-26
2022/09/20 14:04:37;;;;;;;4.57;0.90;;;;;;;18.90;54.95;97149.25;10558738;28;20031;-27
2022/09/20 14:09:38;;;;;;;3.60;0.75;;;;;;;18.89;53.54;97150.09;10547725;28;20109;-27
2022/09/20 14:14:39;;;;;;;3.58;0.60;;;;;;;18.83;53.14;97145.03;10549130;28;20027;-25
2022/09/20 14:19:42;;;;;;;3.85;0.70;;;;;;;18.86;53.00;97150.97;10553167;28;20035;-27
2022/09/20 14:24:58;;;;;;;3.90;0.35;;;;;;;18.87;53.29;97154.34;10551421;28;20031;-27
2022/09/20 14:29:59;;;;;;;2.77;0.80;;;;;;;18.83;52.54;97150.09;10550789;28;20034;-26
2022/09/20 14:35:18;;;;;;;9.43;0.70;;;;;;;18.84;53.11;97154.31;10551820;28;20038;-27
2022/09/20 14:40:30;;;;;;;3.25;0.77;;;;;;;18.84;52.94;97161.94;10553688;28;20325;-26
2022/09/20 14:45:39;;;;;;;3.45;0.63;;;;;;;18.86;53.08;97150.09;10554574;28;20051;-26
2022/09/20 14:50:42;;;;;;;3.35;0.40;;;;;;;18.86;53.10;97160.25;10559255;28;20538;-26
2022/09/20 14:56:05;;;;;;;1.70;0.40;;;;;;;18.85;53.09;97150.94;10558762;28;20036;-26
2022/09/20 15:01:23;;;;;;;3.30;0.82;;;;;;;18.88;53.97;97148.41;10558657;28;20110;-29
2022/09/20 15:06:24;;;;;;;6.68;0.85;;;;;;;18.88;54.35;97149.28;10556028;28;20086;-26
2022/09/20 15:11:25;;;;;;;2.97;1.40;;;;;;;18.88;53.35;97145.88;10559193;28;20070;-27
2022/09/20 15:16:26;;;;;;;0.45;0.40;;;;;;;18.87;53.11;97149.25;10554586;28;20100;-27
2022/09/20 15:21:27;;;;;;;2.72;0.40;;;;;;;18.87;52.97;97149.25;10557373;28;20403;-27
2022/09/20 15:26:30;;;;;;;4.27;0.73;;;;;;;18.86;53.21;97145.03;10560172;28;20036;-26
2022/09/20 15:31:31;;;;;;;1.48;0.30;;;;;;;18.86;52.94;97145.03;10556064;28;20028;-27
2022/09/20 15:36:31;;;;;;;2.20;0.40;;;;;;;18.85;52.96;97140.81;10557927;28;20032;-26
2022/09/20 15:41:32;;;;;;;3.37;0.60;;;;;;;18.81;52.91;97137.41;10559117;28;20028;-25
2022/09/20 15:46:33;;;;;;;1.27;0.40;;;;;;;18.84;53.02;97141.66;10549308;28;20032;-26
2022/09/20 15:51:34;;;;;;;4.07;0.50;;;;;;;18.80;52.99;97134.84;10561846;28;20052;-26
2022/09/20 15:56:36;;;;;;;2.55;0.50;;;;;;;18.82;53.16;97143.34;10556078;28;20523;-27
2022/09/20 16:01:39;;;;;;;4.93;0.70;;;;;;;18.80;51.14;97139.91;10551287;28;20020;-28
2022/09/20 16:06:41;;;;;;;4.93;0.68;;;;;;;18.85;53.65;97138.25;10555028;28;20031;-26
2022/09/20 16:11:42;;;;;;;6.07;0.52;;;;;;;18.88;53.29;97143.34;10525826;28;20525;-27
2022/09/20 16:16:42;;;;;;;1.73;0.60;;;;;;;18.88;53.02;97153.50;10519350;28;20034;-26
2022/09/20 16:21:49;;;;;;;4.87;0.70;;;;;;;18.87;52.99;97167.88;10527753;28;20023;-26
2022/09/20 16:26:49;;;;;;;3.22;0.43;;;;;;;18.79;52.87;97164.44;10540057;28;20031;-26
2022/09/20 16:31:52;;;;;;;1.93;1.10;;;;;;;18.84;53.26;97169.56;10546758;28;20404;-26
2022/09/20 16:36:55;;;;;;;1.98;0.30;;;;;;;18.82;54.45;97176.31;10557855;28;20028;-27
2022/09/20 16:42:02;;;;;;;4.63;0.80;;;;;;;18.80;53.28;97180.50;10542087;28;20114;-26
2022/09/20 16:47:06;;;;;;;2.13;0.38;;;;;;;18.78;52.83;97187.25;10556008;28;20023;-27
2022/09/20 16:52:08;;;;;;;3.72;0.70;;;;;;;18.73;52.26;97186.38;10543892;28;20040;-27
2022/09/20 16:57:08;;;;;;;0.40;0.40;;;;;;;18.70;51.55;97182.16;10554800;28;20084;-26
2022/09/20 17:02:11;;;;;;;1.33;0.70;;;;;;;18.79;51.30;97194.91;10545854;28;20081;-25
2022/09/20 17:07:11;;;;;;;9.02;1.00;;;;;;;18.82;54.01;97194.91;10554279;28;20286;-25
2022/09/20 17:12:12;;;;;;;2.40;1.27;;;;;;;18.79;50.89;97194.03;10552420;28;20035;-26
2022/09/20 17:17:12;;;;;;;2.80;1.20;;;;;;;18.53;50.03;97203.16;10532308;28;20063;-27
2022/09/20 17:22:13;;;;;;;2.17;0.80;;;;;;;18.39;48.87;97204.72;10528486;28;20028;-26
2022/09/20 17:27:13;;;;;;;1.10;1.00;;;;;;;18.54;49.00;97198.09;10521913;28;20067;-26
2022/09/20 17:32:14;;;;;;;3.55;1.30;;;;;;;18.54;48.98;97207.38;10525581;28;20089;-27
2022/09/20 17:37:14;;;;;;;2.27;1.40;;;;;;;18.57;48.80;97215.84;10532575;28;20036;-27
2022/09/20 17:42:15;;;;;;;2.00;1.03;;;;;;;18.56;48.90;97226.84;10549609;28;20798;-26
2022/09/20 17:47:17;;;;;;;1.33;1.00;;;;;;;18.60;48.94;97237.88;10550934;28;20293;-26
2022/09/20 17:52:17;;;;;;;2.58;1.00;;;;;;;18.62;49.14;97233.66;10533090;28;20120;-26
2022/09/20 17:57:17;;;;;;;3.20;0.80;;;;;;;18.61;48.98;97245.50;10540057;28;20033;-26
2022/09/20 18:02:18;;;;;;;1.37;0.80;;;;;;;18.26;48.35;97251.06;10525330;28;20384;-26
2022/09/20 18:07:18;;;;;;;2.47;1.20;;;;;;;18.25;47.98;97264.56;10522541;28;20034;-28
2022/09/20 18:12:18;;;;;;;1.53;1.07;;;;;;;18.23;47.67;97266.22;10551258;28;20038;-27
2022/09/20 18:17:19;;;;;;;1.77;1.00;;;;;;;18.17;47.52;97277.16;10544965;28;20024;-26
2022/09/20 18:22:19;;;;;;;1.30;0.90;;;;;;;18.14;47.21;97281.34;10547437;28;20019;-26
2022/09/20 18:27:19;;;;;;;1.37;0.80;;;;;;;18.10;46.98;97285.56;10571309;28;20111;-26
2022/09/20 18:32:20;;;;;;;1.83;0.63;;;;;;;18.07;47.18;97287.19;10574095;28;20111;-27
2022/09/20 18:37:20;;;;;;;3.23;1.20;;;;;;;18.08;46.76;97286.38;10569542;28;20114;-26
2022/09/20 18:42:20;;;;;;;1.00;0.60;;;;;;;18.06;46.77;97288.00;10572884;28;20047;-26
2022/09/20 18:47:21;;;;;;;1.37;0.97;;;;;;;18.05;46.34;97296.44;10554341;28;20522;-27
2022/09/20 18:52:22;;;;;;;1.60;0.90;;;;;;;18.03;46.40;97293.06;10549635;28;20039;-27
2022/09/20 18:57:23;;;;;;;1.10;0.57;;;;;;;18.01;46.43;97289.66;10555438;28;20101;-26
2022/09/20 19:02:42;;;;;;;2.13;0.65;;;;;;;17.99;46.20;97293.88;10556973;28;20622;-26
2022/09/20 19:07:57;;;;;;;2.40;0.60;;;;;;;17.98;46.12;97303.13;10541791;28;20036;-28
2022/09/20 19:13:05;;;;;;;2.25;0.80;;;;;;;18.00;46.46;97293.88;10553712;28;20050;-28
2022/09/20 19:18:11;;;;;;;1.30;0.60;;;;;;;17.99;45.96;97294.69;10555167;28;20419;-26
2022/09/20 19:23:11;;;;;;;;;;;;;;;17.96;46.29;97309.88;10550784;28;20032;-25
2022/09/20 19:28:14;;;;;;;2.78;0.80;;;;;;;17.95;46.30;97313.25;10554452;28;19942;-28
2022/09/20 19:33:16;;;;;;;3.13;0.60;;;;;;;17.93;46.28;97314.06;10562627;28;20457;-26
2022/09/20 19:38:41;;;;;;;1.27;0.65;;;;;;;18.09;46.38;97313.41;10563641;28;20023;-27
2022/09/20 19:44:07;;;;;;;1.92;0.70;;;;;;;18.30;46.45;97323.78;10558795;28;20035;-27
2022/09/20 19:49:20;;;;;;;1.35;0.63;;;;;;;18.47;46.59;97332.41;10554627;28;20073;-26
2022/09/20 19:54:21;;;;;;;1.58;0.98;;;;;;;18.50;46.85;97327.38;10560331;28;20031;-27
2022/09/20 19:59:24;;;;;;;1.50;0.82;;;;;;;18.52;47.13;97326.56;10557990;28;20016;-27
2022/09/20 20:04:24;;;;;;;2.05;0.60;;;;;;;18.53;48.33;97322.34;10553615;28;20059;-27
2022/09/20 20:09:35;;;;;;;1.33;0.63;;;;;;;18.56;47.68;97327.41;10542623;28;20119;-26
2022/09/20 20:14:52;;;;;;;1.73;0.80;;;;;;;18.63;51.41;97319.03;10531515;28;20032;-26
2022/09/20 20:20:02;;;;;;;4.00;1.05;;;;;;;18.66;52.46;97324.16;10533205;28;20034;-26
2022/09/20 20:25:03;;;;;;;1.30;0.60;;;;;;;18.67;49.23;97323.31;10530948;28;20047;-27
2022/09/20 20:30:04;;;;;;;3.25;0.60;;;;;;;18.67;48.57;97320.78;10542474;28;20040;-27
2022/09/20 20:35:05;;;;;;;4.90;0.63;;;;;;;18.63;48.51;97324.09;10566955;28;20027;-26
2022/09/20 20:40:12;;;;;;;1.52;0.55;;;;;;;18.61;48.80;97336.78;10566391;28;20119;-27
2022/09/20 20:45:12;;;;;;;0.80;0.70;;;;;;;18.56;48.85;97314.75;10544515;28;20115;-28
2022/09/20 20:50:13;;;;;;;2.58;0.70;;;;;;;18.60;49.03;97326.63;10547052;28;20169;-26
2022/09/20 20:55:14;;;;;;;1.23;0.70;;;;;;;18.61;49.14;97330.84;10540185;28;20100;-27
2022/09/20 21:00:15;;;;;;;3.22;0.60;;;;;;;18.59;49.22;97327.47;10555770;28;20039;-27
2022/09/20 21:05:15;;;;;;;0.65;0.50;;;;;;;18.61;49.66;97330.84;10554997;28;20035;-26
2022/09/20 21:10:15;;;;;;;1.03;0.43;;;;;;;18.59;49.36;97327.47;10545971;28;20039;-26
2022/09/20 21:15:20;;;;;;;1.43;0.87;;;;;;;18.62;49.36;97332.56;10550801;28;20028;-27
2022/09/20 21:20:20;;;;;;;2.72;1.02;;;;;;;18.66;54.21;97336.84;10550757;28;20081;-27
2022/09/20 21:25:21;;;;;;;2.85;0.88;;;;;;;18.70;53.70;97330.94;10550597;28;20085;-25
2022/09/20 21:30:21;;;;;;;0.70;0.60;;;;;;;18.71;50.80;97330.09;10551463;28;20032;-26
2022/09/20 21:35:22;;;;;;;1.97;0.77;;;;;;;18.68;49.96;97328.38;10552382;28;20115;-27
2022/09/20 21:40:23;;;;;;;0.85;0.70;;;;;;;18.66;49.99;97324.16;10552977;28;20031;-26
2022/09/20 21:45:26;;;;;;;1.33;0.70;;;;;;;18.65;49.84;97327.50;10547079;28;20518;-27
2022/09/20 21:50:26;;;;;;;1.50;0.47;;;;;;;18.64;50.08;97325.81;10555342;28;20376;-26
2022/09/20 21:55:26;;;;;;;1.40;0.65;;;;;;;18.60;50.00;97313.94;10552417;28;20035;-26
2022/09/20 22:00:27;;;;;;;0.80;0.60;;;;;;;18.64;50.29;97323.25;10560228;28;20036;-27
2022/09/20 22:05:27;;;;;;;0.93;0.60;;;;;;;18.63;50.22;97316.50;10562129;28;20105;-27
2022/09/20 22:10:27;;;;;;;0.77;0.70;;;;;;;18.64;50.26;97316.53;10553336;28;20036;-27
2022/09/20 22:15:28;;;;;;;3.63;0.93;;;;;;;18.62;50.54;97319.88;10545969;28;20039;-28
2022/09/20 22:20:28;;;;;;;1.40;0.70;;;;;;;18.64;52.85;97313.13;10562908;28;20278;-27
2022/09/20 22:25:33;;;;;;;2.77;0.63;;;;;;;18.67;53.82;97311.47;10554054;28;20028;-27
2022/09/20 22:30:33;;;;;;;3.00;0.70;;;;;;;18.68;52.32;97307.25;10557807;28;20499;-26
2022/09/20 22:35:33;;;;;;;0.87;0.50;;;;;;;18.69;50.58;97311.47;10562608;28;20050;-26
2022/09/20 22:40:34;;;;;;;0.73;0.50;;;;;;;18.65;50.33;97300.47;10558272;28;20036;-26
2022/09/20 22:45:34;;;;;;;1.67;0.53;;;;;;;18.66;50.49;97314.00;10557145;28;20137;-26
2022/09/20 22:50:34;;;;;;;2.37;0.70;;;;;;;18.62;50.19;97297.91;10558992;28;20027;-27
2022/09/20 22:55:35;;;;;;;0.57;0.30;;;;;;;18.65;50.53;97308.06;10558608;28;20036;-26
2022/09/20 23:00:35;;;;;;;0.47;0.30;;;;;;;18.64;50.33;97305.50;10552965;28;20028;-27
2022/09/20 23:05:38;;;;;;;0.80;0.50;;;;;;;18.63;50.18;97302.16;10555423;28;20031;-27
2022/09/20 23:10:38;;;;;;;1.63;0.90;;;;;;;18.60;50.45;97299.56;10543147;28;20028;-27
2022/09/20 23:15:39;;;;;;;0.93;0.50;;;;;;;18.62;50.75;97297.91;10557394;28;20031;-27
2022/09/20 23:20:39;;;;;;;0.77;0.50;;;;;;;18.63;50.65;97294.53;10558804;28;20028;-27
2022/09/20 23:25:40;;;;;;;0.52;0.40;;;;;;;18.64;53.62;97300.44;10560124;28;20076;-28
2022/09/20 23:30:40;;;;;;;1.50;0.90;;;;;;;18.67;53.92;97300.50;10551118;28;20031;-27
2022/09/20 23:35:44;;;;;;;0.83;0.53;;;;;;;18.67;52.18;97292.88;10555889;28;20039;-27
2022/09/20 23:40:44;;;;;;;1.58;0.45;;;;;;;18.70;51.22;97298.84;10559810;28;20027;-27
2022/09/20 23:45:45;;;;;;;1.13;0.83;;;;;;;18.68;51.06;97292.88;10541885;28;20515;-27
2022/09/20 23:50:45;;;;;;;2.40;0.50;;;;;;;18.69;50.86;97296.28;10555050;28;20297;-28
2022/09/20 23:55:46;;;;;;;1.23;0.70;;;;;;;18.66;50.89;97296.25;10554645;28;20044;-27
